sensor_id;sensor_type;location;lat;lon;timestamp;pressure;altitude;pressure_sealevel;temperature;humidity
52291;BME280;39663;45.432;28.050;2022-10-01T00:05:37;101403.11;;;25.55;31.23
52291;BME280;39663;45.432;28.050;2022-10-01T00:06:11;101402.60;;;25.56;31.23
52291;BME280;39663;45.432;28.050;2022-10-01T00:06:43;101403.55;;;25.56;31.02
52291;BME280;39663;45.432;28.050;2022-10-01T00:07:15;101402.66;;;25.66;31.22
52291;BME280;39663;45.432;28.050;2022-10-01T00:07:46;101402.82;;;25.81;30.94
52291;BME280;39663;45.432;28.050;2022-10-01T00:08:18;101406.20;;;25.71;30.83
52291;BME280;39663;45.432;28.050;2022-10-01T00:08:50;101405.13;;;25.67;30.82
52291;BME280;39663;45.432;28.050;2022-10-01T00:09:21;101405.86;;;25.75;30.74
52291;BME280;39663;45.432;28.050;2022-10-01T00:09:52;101404.86;;;25.68;30.66
52291;BME280;39663;45.432;28.050;2022-10-01T00:10:24;101406.26;;;26.09;30.61
52291;BME280;39663;45.432;28.050;2022-10-01T00:10:55;101407.55;;;25.56;30.78
52291;BME280;39663;45.432;28.050;2022-10-01T00:11:27;101407.23;;;25.96;30.64
52291;BME280;39663;45.432;28.050;2022-10-01T00:11:58;101407.47;;;25.94;30.53
52291;BME280;39663;45.432;28.050;2022-10-01T00:12:30;101408.14;;;26.19;30.56
52291;BME280;39663;45.432;28.050;2022-10-01T00:13:02;101407.69;;;26.22;30.50
52291;BME280;39663;45.432;28.050;2022-10-01T00:13:33;101410.02;;;25.95;30.51
52291;BME280;39663;45.432;28.050;2022-10-01T00:14:04;101412.43;;;26.00;30.70
52291;BME280;39663;45.432;28.050;2022-10-01T00:14:36;101412.20;;;25.72;30.77
52291;BME280;39663;45.432;28.050;2022-10-01T00:15:08;101411.87;;;25.72;30.80
52291;BME280;39663;45.432;28.050;2022-10-01T00:15:40;101413.38;;;25.90;30.68
52291;BME280;39663;45.432;28.050;2022-10-01T00:16:14;101414.42;;;25.87;30.66
52291;BME280;39663;45.432;28.050;2022-10-01T00:16:46;101412.76;;;25.96;30.55
52291;BME280;39663;45.432;28.050;2022-10-01T00:17:29;101413.43;;;25.81;30.59
52291;BME280;39663;45.432;28.050;2022-10-01T00:18:06;101412.13;;;25.91;30.71
52291;BME280;39663;45.432;28.050;2022-10-01T00:18:40;101412.64;;;25.77;30.90
52291;BME280;39663;45.432;28.050;2022-10-01T00:19:12;101410.69;;;25.44;31.03
52291;BME280;39663;45.432;28.050;2022-10-01T00:19:44;101411.64;;;25.76;30.89
52291;BME280;39663;45.432;28.050;2022-10-01T00:20:16;101413.29;;;25.76;30.89
52291;BME280;39663;45.432;28.050;2022-10-01T00:20:50;101413.18;;;25.77;30.94
52291;BME280;39663;45.432;28.050;2022-10-01T00:21:24;101411.48;;;25.81;31.15
52291;BME280;39663;45.432;28.050;2022-10-01T00:22:02;101411.27;;;25.40;31.21
52291;BME280;39663;45.432;28.050;2022-10-01T00:22:34;101412.00;;;25.57;31.16
52291;BME280;39663;45.432;28.050;2022-10-01T00:23:05;101410.12;;;25.64;31.07
52291;BME280;39663;45.432;28.050;2022-10-01T00:23:38;101411.61;;;25.71;31.30
52291;BME280;39663;45.432;28.050;2022-10-01T00:24:12;101411.92;;;25.74;31.10
52291;BME280;39663;45.432;28.050;2022-10-01T00:24:49;101414.89;;;25.79;30.99
52291;BME280;39663;45.432;28.050;2022-10-01T00:25:24;101416.02;;;25.85;30.94
52291;BME280;39663;45.432;28.050;2022-10-01T00:25:55;101416.55;;;25.85;30.88
52291;BME280;39663;45.432;28.050;2022-10-01T00:26:38;101417.10;;;25.89;30.86
52291;BME280;39663;45.432;28.050;2022-10-01T00:27:10;101416.68;;;25.75;30.91
52291;BME280;39663;45.432;28.050;2022-10-01T00:27:44;101417.44;;;25.79;30.99
52291;BME280;39663;45.432;28.050;2022-10-01T00:28:15;101419.23;;;25.69;31.00
52291;BME280;39663;45.432;28.050;2022-10-01T00:28:51;101420.66;;;25.74;31.11
52291;BME280;39663;45.432;28.050;2022-10-01T00:29:23;101420.51;;;25.58;31.20
52291;BME280;39663;45.432;28.050;2022-10-01T00:29:55;101419.89;;;25.84;31.29
52291;BME280;39663;45.432;28.050;2022-10-01T00:30:27;101422.96;;;25.33;31.49
52291;BME280;39663;45.432;28.050;2022-10-01T00:30:58;101421.69;;;25.64;31.45
52291;BME280;39663;45.432;28.050;2022-10-01T00:31:31;101422.64;;;25.25;31.59
52291;BME280;39663;45.432;28.050;2022-10-01T00:32:03;101423.65;;;25.25;31.82
52291;BME280;39663;45.432;28.050;2022-10-01T00:32:34;101423.01;;;25.41;31.96
52291;BME280;39663;45.432;28.050;2022-10-01T00:33:11;101424.57;;;25.13;31.92
52291;BME280;39663;45.432;28.050;2022-10-01T00:33:43;101426.33;;;25.50;31.93
52291;BME280;39663;45.432;28.050;2022-10-01T00:34:14;101427.62;;;25.32;32.08
52291;BME280;39663;45.432;28.050;2022-10-01T00:34:46;101430.15;;;25.21;32.03
52291;BME280;39663;45.432;28.050;2022-10-01T00:35:18;101431.42;;;25.08;32.00
52291;BME280;39663;45.432;28.050;2022-10-01T00:35:53;101433.52;;;25.59;31.88
52291;BME280;39663;45.432;28.050;2022-10-01T00:36:25;101433.99;;;25.50;31.95
52291;BME280;39663;45.432;28.050;2022-10-01T00:37:03;101434.05;;;25.36;31.99
52291;BME280;39663;45.432;28.050;2022-10-01T00:37:39;101433.76;;;25.53;32.02
52291;BME280;39663;45.432;28.050;2022-10-01T00:38:11;101434.65;;;25.42;31.93
52291;BME280;39663;45.432;28.050;2022-10-01T00:38:42;101434.64;;;25.13;32.10
52291;BME280;39663;45.432;28.050;2022-10-01T00:39:15;101433.36;;;25.35;32.12
52291;BME280;39663;45.432;28.050;2022-10-01T00:39:47;101431.98;;;25.28;32.37
52291;BME280;39663;45.432;28.050;2022-10-01T00:40:20;101431.66;;;25.02;32.60
52291;BME280;39663;45.432;28.050;2022-10-01T00:40:53;101430.71;;;25.27;32.59
52291;BME280;39663;45.432;28.050;2022-10-01T00:41:28;101432.02;;;25.51;32.64
52291;BME280;39663;45.432;28.050;2022-10-01T00:42:00;101430.91;;;25.37;32.92
52291;BME280;39663;45.432;28.050;2022-10-01T00:42:33;101430.15;;;25.26;33.14
52291;BME280;39663;45.432;28.050;2022-10-01T00:43:20;101427.10;;;25.11;33.34
52291;BME280;39663;45.432;28.050;2022-10-01T00:43:56;101427.11;;;25.04;33.48
52291;BME280;39663;45.432;28.050;2022-10-01T00:44:36;101426.11;;;25.01;33.60
52291;BME280;39663;45.432;28.050;2022-10-01T00:45:13;101425.48;;;25.10;33.46
52291;BME280;39663;45.432;28.050;2022-10-01T00:45:48;101426.04;;;25.26;33.47
52291;BME280;39663;45.432;28.050;2022-10-01T00:46:26;101425.81;;;25.33;33.49
52291;BME280;39663;45.432;28.050;2022-10-01T00:47:05;101424.62;;;25.16;33.74
52291;BME280;39663;45.432;28.050;2022-10-01T00:47:42;101423.81;;;25.07;33.60
52291;BME280;39663;45.432;28.050;2022-10-01T00:48:18;101422.59;;;24.99;33.74
52291;BME280;39663;45.432;28.050;2022-10-01T00:48:54;101420.44;;;24.85;33.82
52291;BME280;39663;45.432;28.050;2022-10-01T00:49:29;101420.94;;;24.99;33.99
52291;BME280;39663;45.432;28.050;2022-10-01T00:50:09;101419.75;;;25.06;33.98
52291;BME280;39663;45.432;28.050;2022-10-01T00:50:44;101419.69;;;24.77;34.16
52291;BME280;39663;45.432;28.050;2022-10-01T00:51:19;101419.13;;;25.01;34.06
52291;BME280;39663;45.432;28.050;2022-10-01T00:51:54;101417.42;;;24.95;34.11
52291;BME280;39663;45.432;28.050;2022-10-01T00:52:32;101418.04;;;25.00;34.13
52291;BME280;39663;45.432;28.050;2022-10-01T00:53:09;101420.88;;;24.93;34.13
52291;BME280;39663;45.432;28.050;2022-10-01T00:53:44;101423.24;;;24.92;34.15
52291;BME280;39663;45.432;28.050;2022-10-01T00:54:20;101421.49;;;24.94;34.15
52291;BME280;39663;45.432;28.050;2022-10-01T00:54:59;101426.42;;;24.95;34.19
52291;BME280;39663;45.432;28.050;2022-10-01T00:55:36;101422.02;;;24.78;34.37
52291;BME280;39663;45.432;28.050;2022-10-01T00:56:10;101423.92;;;24.66;34.59
52291;BME280;39663;45.432;28.050;2022-10-01T00:56:45;101424.52;;;24.79;34.43
52291;BME280;39663;45.432;28.050;2022-10-01T00:57:20;101423.35;;;24.90;34.27
52291;BME280;39663;45.432;28.050;2022-10-01T00:57:54;101423.93;;;24.96;34.19
52291;BME280;39663;45.432;28.050;2022-10-01T00:58:26;101422.47;;;24.97;34.11
52291;BME280;39663;45.432;28.050;2022-10-01T00:58:59;101421.21;;;25.10;33.97
52291;BME280;39663;45.432;28.050;2022-10-01T00:59:33;101420.76;;;25.13;33.84
52291;BME280;39663;45.432;28.050;2022-10-01T01:00:08;101422.74;;;25.22;33.71
52291;BME280;39663;45.432;28.050;2022-10-01T01:00:42;101423.38;;;25.06;33.60
52291;BME280;39663;45.432;28.050;2022-10-01T01:01:15;101423.54;;;25.21;33.64
52291;BME280;39663;45.432;28.050;2022-10-01T01:01:47;101426.56;;;25.14;33.53
52291;BME280;39663;45.432;28.050;2022-10-01T01:02:19;101427.37;;;25.41;33.43
52291;BME280;39663;45.432;28.050;2022-10-01T01:02:56;101428.36;;;25.19;33.59
52291;BME280;39663;45.432;28.050;2022-10-01T01:03:28;101427.72;;;25.26;33.62
52291;BME280;39663;45.432;28.050;2022-10-01T01:04:00;101429.31;;;25.11;33.85
52291;BME280;39663;45.432;28.050;2022-10-01T01:04:32;101427.86;;;25.11;33.87
52291;BME280;39663;45.432;28.050;2022-10-01T01:05:05;101429.17;;;25.18;33.74
52291;BME280;39663;45.432;28.050;2022-10-01T01:05:37;101431.53;;;25.08;33.91
52291;BME280;39663;45.432;28.050;2022-10-01T01:06:09;101429.91;;;25.05;33.94
52291;BME280;39663;45.432;28.050;2022-10-01T01:06:42;101430.86;;;25.12;33.86
52291;BME280;39663;45.432;28.050;2022-10-01T01:07:16;101431.90;;;24.97;34.05
52291;BME280;39663;45.432;28.050;2022-10-01T01:07:49;101432.29;;;25.00;34.11
52291;BME280;39663;45.432;28.050;2022-10-01T01:08:22;101432.63;;;25.02;34.10
52291;BME280;39663;45.432;28.050;2022-10-01T01:08:55;101433.09;;;24.87;34.11
52291;BME280;39663;45.432;28.050;2022-10-01T01:09:30;101429.81;;;24.76;34.38
52291;BME280;39663;45.432;28.050;2022-10-01T01:10:04;101433.08;;;24.67;34.57
52291;BME280;39663;45.432;28.050;2022-10-01T01:10:46;101435.76;;;24.48;34.85
52291;BME280;39663;45.432;28.050;2022-10-01T01:11:27;101438.32;;;24.51;34.91
52291;BME280;39663;45.432;28.050;2022-10-01T01:12:09;101440.63;;;24.45;35.10
52291;BME280;39663;45.432;28.050;2022-10-01T01:12:58;101442.36;;;23.96;35.77
52291;BME280;39663;45.432;28.050;2022-10-01T01:13:39;101443.37;;;24.02;35.83
52291;BME280;39663;45.432;28.050;2022-10-01T01:14:18;101443.63;;;23.95;35.84
52291;BME280;39663;45.432;28.050;2022-10-01T01:15:02;101443.09;;;24.08;35.75
52291;BME280;39663;45.432;28.050;2022-10-01T01:15:42;101442.41;;;23.98;35.90
52291;BME280;39663;45.432;28.050;2022-10-01T01:16:22;101441.15;;;23.84;35.73
52291;BME280;39663;45.432;28.050;2022-10-01T01:16:59;101441.84;;;23.82;35.69
52291;BME280;39663;45.432;28.050;2022-10-01T01:17:37;101443.20;;;23.66;35.73
52291;BME280;39663;45.432;28.050;2022-10-01T01:18:16;101441.99;;;23.56;35.72
52291;BME280;39663;45.432;28.050;2022-10-01T01:18:56;101437.82;;;23.75;35.36
52291;BME280;39663;45.432;28.050;2022-10-01T01:19:48;101435.91;;;23.69;35.38
52291;BME280;39663;45.432;28.050;2022-10-01T01:20:43;101435.57;;;23.94;35.26
52291;BME280;39663;45.432;28.050;2022-10-01T01:21:22;101435.93;;;23.71;35.25
52291;BME280;39663;45.432;28.050;2022-10-01T01:21:59;101437.58;;;23.72;35.24
52291;BME280;39663;45.432;28.050;2022-10-01T01:22:36;101437.78;;;23.71;35.22
52291;BME280;39663;45.432;28.050;2022-10-01T01:23:28;101438.69;;;23.76;35.10
52291;BME280;39663;45.432;28.050;2022-10-01T01:24:53;101440.09;;;24.19;34.78
52291;BME280;39663;45.432;28.050;2022-10-01T01:25:45;101441.53;;;23.99;34.67
52291;BME280;39663;45.432;28.050;2022-10-01T01:26:40;101441.64;;;23.83;34.83
52291;BME280;39663;45.432;28.050;2022-10-01T01:27:39;101440.53;;;23.98;34.72
52291;BME280;39663;45.432;28.050;2022-10-01T01:28:28;101439.60;;;24.14;34.61
52291;BME280;39663;45.432;28.050;2022-10-01T01:29:25;101440.06;;;23.80;34.83
52291;BME280;39663;45.432;28.050;2022-10-01T01:30:12;101440.73;;;23.85;34.67
52291;BME280;39663;45.432;28.050;2022-10-01T01:30:57;101441.03;;;24.20;34.57
52291;BME280;39663;45.432;28.050;2022-10-01T01:31:34;101441.01;;;24.24;34.52
52291;BME280;39663;45.432;28.050;2022-10-01T01:32:11;101440.75;;;24.07;34.49
52291;BME280;39663;45.432;28.050;2022-10-01T01:32:48;101439.05;;;24.18;34.38
52291;BME280;39663;45.432;28.050;2022-10-01T01:33:25;101440.72;;;24.21;34.29
52291;BME280;39663;45.432;28.050;2022-10-01T01:34:00;101443.07;;;24.12;34.38
52291;BME280;39663;45.432;28.050;2022-10-01T01:34:35;101441.73;;;24.24;34.29
52291;BME280;39663;45.432;28.050;2022-10-01T01:35:09;101442.81;;;24.11;34.41
52291;BME280;39663;45.432;28.050;2022-10-01T01:35:48;101443.68;;;24.35;34.50
52291;BME280;39663;45.432;28.050;2022-10-01T01:36:26;101443.44;;;23.90;34.76
52291;BME280;39663;45.432;28.050;2022-10-01T01:37:03;101445.47;;;23.84;34.78
52291;BME280;39663;45.432;28.050;2022-10-01T01:37:39;101444.39;;;23.77;34.97
52291;BME280;39663;45.432;28.050;2022-10-01T01:38:17;101445.41;;;24.31;34.82
52291;BME280;39663;45.432;28.050;2022-10-01T01:38:56;101445.81;;;24.22;34.61
52291;BME280;39663;45.432;28.050;2022-10-01T01:39:32;101445.32;;;24.24;34.34
52291;BME280;39663;45.432;28.050;2022-10-01T01:40:07;101445.08;;;24.28;34.49
52291;BME280;39663;45.432;28.050;2022-10-01T01:40:44;101443.73;;;24.08;34.54
52291;BME280;39663;45.432;28.050;2022-10-01T01:41:18;101441.81;;;24.15;34.49
52291;BME280;39663;45.432;28.050;2022-10-01T01:41:55;101441.49;;;24.15;34.37
52291;BME280;39663;45.432;28.050;2022-10-01T01:42:35;101439.67;;;24.19;34.26
52291;BME280;39663;45.432;28.050;2022-10-01T01:43:11;101439.85;;;24.29;34.44
52291;BME280;39663;45.432;28.050;2022-10-01T01:43:48;101436.60;;;24.32;34.42
52291;BME280;39663;45.432;28.050;2022-10-01T01:44:25;101438.59;;;24.44;34.34
52291;BME280;39663;45.432;28.050;2022-10-01T01:45:00;101437.97;;;24.35;34.36
52291;BME280;39663;45.432;28.050;2022-10-01T01:45:37;101436.17;;;24.19;34.33
52291;BME280;39663;45.432;28.050;2022-10-01T01:46:12;101435.81;;;24.28;34.19
52291;BME280;39663;45.432;28.050;2022-10-01T01:46:46;101437.67;;;24.31;34.18
52291;BME280;39663;45.432;28.050;2022-10-01T01:47:21;101438.88;;;24.47;34.02
52291;BME280;39663;45.432;28.050;2022-10-01T01:47:56;101437.39;;;24.49;33.98
52291;BME280;39663;45.432;28.050;2022-10-01T01:48:32;101441.20;;;24.40;34.06
52291;BME280;39663;45.432;28.050;2022-10-01T01:49:06;101440.89;;;24.44;34.04
52291;BME280;39663;45.432;28.050;2022-10-01T01:49:39;101440.87;;;24.53;33.94
52291;BME280;39663;45.432;28.050;2022-10-01T01:50:14;101443.64;;;24.71;33.97
52291;BME280;39663;45.432;28.050;2022-10-01T01:50:51;101442.67;;;24.47;33.97
52291;BME280;39663;45.432;28.050;2022-10-01T01:51:30;101443.90;;;24.42;34.04
52291;BME280;39663;45.432;28.050;2022-10-01T01:52:09;101443.03;;;24.53;34.03
52291;BME280;39663;45.432;28.050;2022-10-01T01:52:42;101444.08;;;24.65;34.02
52291;BME280;39663;45.432;28.050;2022-10-01T01:53:14;101442.91;;;24.55;33.91
52291;BME280;39663;45.432;28.050;2022-10-01T01:53:47;101443.84;;;24.50;33.97
52291;BME280;39663;45.432;28.050;2022-10-01T01:54:19;101441.48;;;24.59;33.86
52291;BME280;39663;45.432;28.050;2022-10-01T01:54:51;101443.74;;;24.19;34.32
52291;BME280;39663;45.432;28.050;2022-10-01T01:55:27;101443.85;;;24.40;34.15
52291;BME280;39663;45.432;28.050;2022-10-01T01:56:00;101444.17;;;24.49;34.02
52291;BME280;39663;45.432;28.050;2022-10-01T01:56:33;101445.22;;;24.49;34.04
52291;BME280;39663;45.432;28.050;2022-10-01T01:57:05;101443.20;;;24.80;33.94
52291;BME280;39663;45.432;28.050;2022-10-01T01:57:42;101444.30;;;24.55;33.92
52291;BME280;39663;45.432;28.050;2022-10-01T01:58:17;101445.91;;;24.65;33.86
52291;BME280;39663;45.432;28.050;2022-10-01T01:58:50;101444.22;;;24.74;33.82
52291;BME280;39663;45.432;28.050;2022-10-01T01:59:23;101447.04;;;24.74;33.72
52291;BME280;39663;45.432;28.050;2022-10-01T01:59:57;101447.64;;;24.68;33.78
52291;BME280;39663;45.432;28.050;2022-10-01T09:58:46;101380.35;;;31.34;26.92
52291;BME280;39663;45.432;28.050;2022-10-01T09:59:28;101377.06;;;31.42;26.93
52291;BME280;39663;45.432;28.050;2022-10-01T10:00:05;101376.29;;;31.52;26.84
52291;BME280;39663;45.432;28.050;2022-10-01T10:00:38;101377.05;;;31.53;26.75
52291;BME280;39663;45.432;28.050;2022-10-01T10:01:19;101375.43;;;31.18;26.80
52291;BME280;39663;45.432;28.050;2022-10-01T10:01:54;101373.67;;;31.27;26.82
52291;BME280;39663;45.432;28.050;2022-10-01T10:02:30;101372.85;;;31.40;26.78
52291;BME280;39663;45.432;28.050;2022-10-01T10:03:03;101372.58;;;31.48;26.68
52291;BME280;39663;45.432;28.050;2022-10-01T10:03:34;101371.16;;;31.68;26.49
52291;BME280;39663;45.432;28.050;2022-10-01T10:04:07;101370.36;;;31.71;26.45
52291;BME280;39663;45.432;28.050;2022-10-01T10:04:39;101370.54;;;31.89;26.48
52291;BME280;39663;45.432;28.050;2022-10-01T10:05:14;101370.42;;;31.74;26.49
52291;BME280;39663;45.432;28.050;2022-10-01T10:05:46;101366.05;;;31.81;26.36
52291;BME280;39663;45.432;28.050;2022-10-01T10:06:22;101366.54;;;31.84;26.32
52291;BME280;39663;45.432;28.050;2022-10-01T10:06:59;101365.08;;;31.81;26.30
52291;BME280;39663;45.432;28.050;2022-10-01T10:07:32;101363.69;;;31.78;26.49
52291;BME280;39663;45.432;28.050;2022-10-01T10:08:11;101365.26;;;31.68;26.51
52291;BME280;39663;45.432;28.050;2022-10-01T10:08:45;101365.14;;;31.79;26.40
52291;BME280;39663;45.432;28.050;2022-10-01T10:09:18;101363.07;;;31.87;26.33
52291;BME280;39663;45.432;28.050;2022-10-01T10:09:53;101361.79;;;31.76;26.17
52291;BME280;39663;45.432;28.050;2022-10-01T10:10:28;101358.83;;;31.82;26.09
52291;BME280;39663;45.432;28.050;2022-10-01T10:11:02;101356.80;;;32.10;26.20
52291;BME280;39663;45.432;28.050;2022-10-01T10:11:35;101354.30;;;32.09;26.08
52291;BME280;39663;45.432;28.050;2022-10-01T10:12:15;101352.67;;;32.10;25.95
52291;BME280;39663;45.432;28.050;2022-10-01T10:12:56;101349.03;;;32.17;25.93
52291;BME280;39663;45.432;28.050;2022-10-01T10:13:31;101347.95;;;32.19;25.92
52291;BME280;39663;45.432;28.050;2022-10-01T10:14:03;101344.22;;;32.00;25.83
52291;BME280;39663;45.432;28.050;2022-10-01T10:14:37;101344.11;;;32.03;25.85
52291;BME280;39663;45.432;28.050;2022-10-01T10:15:15;101340.72;;;32.12;25.79
52291;BME280;39663;45.432;28.050;2022-10-01T10:15:50;101340.07;;;32.31;25.74
52291;BME280;39663;45.432;28.050;2022-10-01T10:16:25;101339.29;;;32.10;25.76
52291;BME280;39663;45.432;28.050;2022-10-01T10:16:57;101339.22;;;32.17;25.74
52291;BME280;39663;45.432;28.050;2022-10-01T10:17:35;101338.06;;;32.22;25.64
52291;BME280;39663;45.432;28.050;2022-10-01T10:18:12;101337.37;;;32.20;25.70
52291;BME280;39663;45.432;28.050;2022-10-01T10:18:47;101335.92;;;32.24;25.87
52291;BME280;39663;45.432;28.050;2022-10-01T10:19:22;101335.31;;;32.28;25.71
52291;BME280;39663;45.432;28.050;2022-10-01T10:19:54;101332.42;;;32.31;25.65
52291;BME280;39663;45.432;28.050;2022-10-01T10:20:31;101332.36;;;32.28;25.67
52291;BME280;39663;45.432;28.050;2022-10-01T10:21:06;101332.24;;;32.28;25.63
52291;BME280;39663;45.432;28.050;2022-10-01T10:21:50;101331.42;;;32.14;25.83
52291;BME280;39663;45.432;28.050;2022-10-01T10:22:24;101331.35;;;32.17;25.64
52291;BME280;39663;45.432;28.050;2022-10-01T10:23:06;101331.76;;;32.26;25.78
52291;BME280;39663;45.432;28.050;2022-10-01T10:23:46;101330.75;;;32.32;25.91
52291;BME280;39663;45.432;28.050;2022-10-01T10:24:24;101331.70;;;32.39;25.61
52291;BME280;39663;45.432;28.050;2022-10-01T10:24:56;101332.00;;;32.39;25.57
52291;BME280;39663;45.432;28.050;2022-10-01T10:25:27;101330.46;;;32.24;25.48
52291;BME280;39663;45.432;28.050;2022-10-01T10:26:00;101330.59;;;32.37;25.54
52291;BME280;39663;45.432;28.050;2022-10-01T10:26:34;101327.94;;;32.24;25.26
52291;BME280;39663;45.432;28.050;2022-10-01T10:27:20;101329.66;;;32.29;25.76
52291;BME280;39663;45.432;28.050;2022-10-01T10:27:54;101328.67;;;32.20;25.58
52291;BME280;39663;45.432;28.050;2022-10-01T10:28:27;101328.45;;;32.15;26.04
52291;BME280;39663;45.432;28.050;2022-10-01T10:29:01;101329.71;;;32.36;25.66
52291;BME280;39663;45.432;28.050;2022-10-01T10:29:34;101326.34;;;32.19;25.68
52291;BME280;39663;45.432;28.050;2022-10-01T10:30:13;101328.15;;;32.09;25.58
52291;BME280;39663;45.432;28.050;2022-10-01T10:30:46;101325.73;;;31.92;25.37
52291;BME280;39663;45.432;28.050;2022-10-01T10:31:20;101323.86;;;32.35;25.44
52291;BME280;39663;45.432;28.050;2022-10-01T10:31:53;101323.93;;;31.99;25.41
52291;BME280;39663;45.432;28.050;2022-10-01T10:32:26;101323.79;;;32.25;25.50
52291;BME280;39663;45.432;28.050;2022-10-01T10:33:04;101320.87;;;32.14;25.39
52291;BME280;39663;45.432;28.050;2022-10-01T10:33:36;101320.00;;;32.32;25.56
52291;BME280;39663;45.432;28.050;2022-10-01T10:34:14;101317.32;;;32.28;25.39
52291;BME280;39663;45.432;28.050;2022-10-01T10:34:47;101320.42;;;32.31;25.39
52291;BME280;39663;45.432;28.050;2022-10-01T10:35:22;101320.21;;;32.34;25.41
52291;BME280;39663;45.432;28.050;2022-10-01T10:35:59;101322.35;;;32.34;25.41
52291;BME280;39663;45.432;28.050;2022-10-01T10:36:34;101318.89;;;32.38;25.32
52291;BME280;39663;45.432;28.050;2022-10-01T10:37:18;101320.55;;;32.33;25.30
52291;BME280;39663;45.432;28.050;2022-10-01T10:37:53;101317.67;;;32.39;25.28
52291;BME280;39663;45.432;28.050;2022-10-01T10:38:30;101316.71;;;32.38;25.34
52291;BME280;39663;45.432;28.050;2022-10-01T10:39:04;101315.05;;;32.24;24.83
52291;BME280;39663;45.432;28.050;2022-10-01T10:39:39;101313.37;;;32.05;25.19
52291;BME280;39663;45.432;28.050;2022-10-01T10:40:16;101309.54;;;31.90;25.24
52291;BME280;39663;45.432;28.050;2022-10-01T10:40:49;101307.92;;;32.55;25.06
52291;BME280;39663;45.432;28.050;2022-10-01T10:41:22;101310.03;;;32.31;25.23
52291;BME280;39663;45.432;28.050;2022-10-01T10:41:54;101307.47;;;32.31;25.20
52291;BME280;39663;45.432;28.050;2022-10-01T10:42:26;101304.23;;;32.24;25.15
52291;BME280;39663;45.432;28.050;2022-10-01T10:42:58;101302.68;;;32.26;25.16
52291;BME280;39663;45.432;28.050;2022-10-01T10:43:32;101306.70;;;32.27;25.08
52291;BME280;39663;45.432;28.050;2022-10-01T10:44:06;101303.97;;;32.24;25.00
52291;BME280;39663;45.432;28.050;2022-10-01T10:44:38;101300.25;;;32.17;23.92
52291;BME280;39663;45.432;28.050;2022-10-01T10:45:16;101303.95;;;31.84;24.83
52291;BME280;39663;45.432;28.050;2022-10-01T10:45:51;101296.81;;;31.72;24.47
52291;BME280;39663;45.432;28.050;2022-10-01T10:46:26;101296.71;;;31.84;25.24
52291;BME280;39663;45.432;28.050;2022-10-01T10:47:00;101295.04;;;32.09;25.13
52291;BME280;39663;45.432;28.050;2022-10-01T10:47:43;101291.26;;;32.01;23.51
52291;BME280;39663;45.432;28.050;2022-10-01T10:48:17;101291.23;;;32.10;24.80
52291;BME280;39663;45.432;28.050;2022-10-01T10:48:57;101292.33;;;31.62;25.13
52291;BME280;39663;45.432;28.050;2022-10-01T10:49:32;101287.17;;;32.12;25.09
52291;BME280;39663;45.432;28.050;2022-10-01T10:50:17;101290.62;;;32.22;24.54
52291;BME280;39663;45.432;28.050;2022-10-01T10:50:58;101290.53;;;32.24;24.44
52291;BME280;39663;45.432;28.050;2022-10-01T10:51:51;101293.16;;;32.11;24.91
52291;BME280;39663;45.432;28.050;2022-10-01T10:52:28;101288.56;;;32.13;24.51
52291;BME280;39663;45.432;28.050;2022-10-01T10:53:11;101287.24;;;32.22;24.47
52291;BME280;39663;45.432;28.050;2022-10-01T10:53:48;101289.31;;;32.28;24.51
52291;BME280;39663;45.432;28.050;2022-10-01T10:54:29;101291.91;;;32.18;24.42
52291;BME280;39663;45.432;28.050;2022-10-01T10:55:17;101291.70;;;32.37;24.34
52291;BME280;39663;45.432;28.050;2022-10-01T10:55:53;101295.56;;;32.37;24.43
52291;BME280;39663;45.432;28.050;2022-10-01T10:56:25;101293.09;;;32.22;24.28
52291;BME280;39663;45.432;28.050;2022-10-01T10:57:16;101292.97;;;32.39;24.38
52291;BME280;39663;45.432;28.050;2022-10-01T10:57:53;101293.21;;;32.47;24.38
52291;BME280;39663;45.432;28.050;2022-10-01T10:58:29;101289.24;;;32.51;24.20
52291;BME280;39663;45.432;28.050;2022-10-01T10:59:07;101289.58;;;32.13;23.24
52291;BME280;39663;45.432;28.050;2022-10-01T10:59:41;101288.79;;;32.03;24.14
52291;BME280;39663;45.432;28.050;2022-10-01T11:00:17;101288.97;;;32.15;24.37
52291;BME280;39663;45.432;28.050;2022-10-01T11:00:52;101289.08;;;32.06;24.15
52291;BME280;39663;45.432;28.050;2022-10-01T11:01:27;101286.09;;;32.29;24.16
52291;BME280;39663;45.432;28.050;2022-10-01T11:02:03;101287.74;;;32.11;24.25
52291;BME280;39663;45.432;28.050;2022-10-01T11:02:48;101286.53;;;32.29;24.06
52291;BME280;39663;45.432;28.050;2022-10-01T11:03:28;101284.21;;;32.22;23.90
52291;BME280;39663;45.432;28.050;2022-10-01T11:04:21;101288.19;;;32.16;23.73
52291;BME280;39663;45.432;28.050;2022-10-01T11:04:59;101286.48;;;32.26;23.80
52291;BME280;39663;45.432;28.050;2022-10-01T11:05:41;101283.86;;;31.91;23.98
52291;BME280;39663;45.432;28.050;2022-10-01T11:06:15;101281.38;;;31.99;24.00
52291;BME280;39663;45.432;28.050;2022-10-01T11:06:57;101277.13;;;32.23;23.59
52291;BME280;39663;45.432;28.050;2022-10-01T11:08:05;101273.78;;;32.37;23.67
52291;BME280;39663;45.432;28.050;2022-10-01T11:08:39;101266.80;;;32.41;23.57
52291;BME280;39663;45.432;28.050;2022-10-01T11:09:18;101262.37;;;32.58;23.57
52291;BME280;39663;45.432;28.050;2022-10-01T11:10:04;101261.65;;;32.60;23.57
52291;BME280;39663;45.432;28.050;2022-10-01T11:10:46;101256.84;;;32.60;23.44
52291;BME280;39663;45.432;28.050;2022-10-01T11:11:36;101246.49;;;32.14;22.57